createdAt,value
2019-05-01T00:01:36.775Z,9.60
2019-05-01T00:04:07.011Z,9.62
2019-05-01T00:06:49.361Z,9.63
2019-05-01T00:09:17.999Z,9.50
2019-05-01T00:11:46.509Z,9.47
2019-05-01T00:14:15.288Z,9.45
2019-05-01T00:16:44.072Z,9.34
2019-05-01T00:19:12.481Z,9.43
2019-05-01T00:21:40.912Z,9.34
2019-05-01T00:24:10.431Z,9.33
2019-05-01T00:26:38.912Z,9.43
2019-05-01T00:29:08.471Z,9.37
2019-05-01T00:31:36.805Z,9.42
2019-05-01T00:34:05.379Z,9.37
2019-05-01T00:36:33.851Z,9.49
2019-05-01T00:39:02.267Z,9.44
2019-05-01T00:41:34.446Z,9.45
2019-05-01T00:44:02.868Z,9.51
2019-05-01T00:46:31.335Z,9.42
2019-05-01T00:48:59.767Z,9.47
2019-05-01T00:51:29.217Z,9.54
2019-05-01T00:53:57.631Z,9.54
2019-05-01T00:56:30.475Z,9.54
2019-05-01T00:59:01.841Z,9.58
2019-05-01T01:01:49.336Z,9.53
2019-05-01T01:04:20.264Z,9.46
2019-05-01T01:06:48.687Z,9.32
2019-05-01T01:09:17.595Z,9.32
2019-05-01T01:11:46.034Z,9.39
2019-05-01T01:14:14.429Z,9.28
2019-05-01T01:16:42.907Z,9.35
2019-05-01T01:19:11.331Z,9.42
2019-05-01T01:21:39.815Z,9.37
2019-05-01T01:24:08.241Z,9.26
2019-05-01T01:26:36.967Z,9.17
2019-05-01T01:29:05.487Z,9.22
2019-05-01T01:31:33.928Z,9.38
2019-05-01T01:34:02.340Z,9.41
2019-05-01T01:36:30.804Z,9.34
2019-05-01T01:38:59.604Z,9.46
2019-05-01T01:41:28.072Z,9.48
2019-05-01T01:44:03.920Z,9.48
2019-05-01T01:46:39.887Z,9.50
2019-05-01T01:49:08.593Z,9.52
2019-05-01T01:51:37.344Z,9.46
2019-05-01T01:54:06.097Z,9.33
2019-05-01T01:56:34.740Z,9.43
2019-05-01T01:59:03.421Z,9.28
2019-05-01T02:01:39.963Z,9.47
2019-05-01T02:04:15.864Z,9.44
2019-05-01T02:06:44.441Z,9.23
2019-05-01T02:09:13.322Z,9.38
2019-05-01T02:11:45.783Z,9.31
2019-05-01T02:14:14.271Z,9.33
2019-05-01T02:16:43.726Z,9.40
2019-05-01T02:19:12.514Z,9.53
2019-05-01T02:21:40.990Z,9.56
2019-05-01T02:24:09.422Z,9.61
2019-05-01T02:26:42.144Z,9.61
2019-05-01T02:29:18.164Z,9.73
2019-05-01T02:31:50.128Z,9.71
2019-05-01T02:34:19.581Z,9.61
2019-05-01T02:36:49.495Z,9.59
2019-05-01T02:39:22.149Z,9.46
2019-05-01T02:41:57.381Z,9.50
2019-05-01T02:44:31.516Z,9.52
2019-05-01T02:47:03.013Z,9.61
2019-05-01T02:49:34.919Z,9.60
2019-05-01T02:52:03.583Z,9.68
2019-05-01T02:54:33.586Z,9.58
2019-05-01T02:57:07.534Z,9.53
2019-05-01T02:59:39.337Z,9.65
2019-05-01T03:02:11.723Z,9.63
2019-05-01T03:04:45.070Z,9.72
2019-05-01T03:07:12.587Z,9.63
2019-05-01T03:09:42.115Z,9.59
2019-05-01T03:12:11.490Z,9.60
2019-05-01T03:14:42.814Z,9.51
2019-05-01T03:17:30.632Z,9.53
2019-05-01T03:20:03.032Z,9.43
2019-05-01T03:22:36.604Z,9.64
2019-05-01T03:25:07.205Z,9.63
2019-05-01T03:27:35.870Z,9.71
2019-05-01T03:30:06.644Z,9.60
2019-05-01T03:32:35.323Z,9.63
2019-05-01T03:35:04.986Z,9.62
2019-05-01T03:37:36.762Z,9.72
2019-05-01T03:40:06.529Z,9.77
2019-05-01T03:42:34.949Z,9.82
2019-05-01T03:45:05.004Z,9.71
2019-05-01T03:47:33.718Z,9.87
2019-05-01T03:50:02.679Z,9.91
2019-05-01T03:52:31.460Z,9.77
2019-05-01T03:55:00.273Z,9.83
2019-05-01T03:57:29.174Z,9.86
2019-05-01T03:59:58.511Z,9.81
2019-05-01T04:02:34.803Z,9.83
2019-05-01T04:05:04.208Z,9.79
2019-05-01T04:07:36.255Z,9.73
2019-05-01T04:10:11.794Z,9.81
2019-05-01T04:12:39.655Z,9.95
2019-05-01T04:15:08.402Z,9.89
2019-05-01T04:17:38.737Z,9.86
2019-05-01T04:20:07.504Z,9.78
2019-05-01T04:22:40.288Z,9.65
2019-05-01T04:25:08.923Z,9.76
2019-05-01T04:27:39.272Z,9.97
2019-05-01T04:30:13.632Z,9.93
2019-05-01T04:32:51.902Z,10.12
2019-05-01T04:35:26.301Z,9.89
2019-05-01T04:37:55.356Z,9.92
2019-05-01T04:40:24.211Z,10.05
2019-05-01T04:42:52.649Z,9.98
2019-05-01T04:45:21.892Z,9.98
2019-05-01T04:47:50.968Z,10.03
2019-05-01T04:50:19.545Z,9.74
2019-05-01T04:52:48.122Z,9.84
2019-05-01T04:55:16.895Z,10.10
2019-05-01T04:57:46.240Z,10.13
2019-05-01T05:00:18.531Z,10.08
2019-05-01T05:03:04.116Z,10.16
2019-05-01T05:05:24.706Z,10.32
2019-05-01T05:07:54.274Z,10.28
2019-05-01T05:10:27.600Z,10.08
2019-05-01T05:12:59.282Z,10.10
2019-05-01T05:15:40.034Z,10.21
2019-05-01T05:18:09.234Z,10.20
2019-05-01T05:20:37.986Z,9.93
2019-05-01T05:23:06.517Z,9.86
2019-05-01T05:25:35.355Z,9.95
2019-05-01T05:28:05.773Z,10.06
2019-05-01T05:30:36.244Z,10.03
2019-05-01T05:33:18.131Z,9.94
2019-05-01T05:35:40.241Z,9.95
2019-05-01T05:38:13.787Z,10.03
2019-05-01T05:40:46.801Z,9.93
2019-05-01T05:43:16.033Z,9.96
2019-05-01T05:45:45.666Z,10.04
2019-05-01T05:48:17.650Z,9.92
2019-05-01T05:50:52.370Z,10.11
2019-05-01T05:53:24.559Z,10.18
2019-05-01T05:55:58.616Z,10.10
2019-05-01T05:58:31.799Z,10.10
2019-05-01T06:01:22.367Z,10.10
2019-05-01T06:04:03.763Z,10.24
2019-05-01T06:06:38.626Z,10.28
2019-05-01T06:09:13.334Z,10.50
2019-05-01T06:11:53.838Z,10.50
2019-05-01T06:14:26.920Z,10.40
2019-05-01T06:16:57.261Z,10.59
2019-05-01T06:19:49.594Z,10.49
2019-05-01T06:22:35.093Z,10.45
2019-05-01T06:25:21.274Z,10.83
2019-05-01T06:27:39.763Z,10.63
2019-05-01T06:30:11.135Z,10.62
2019-05-01T06:32:41.330Z,10.68
2019-05-01T06:35:09.924Z,10.72
2019-05-01T06:38:06.779Z,10.62
2019-05-01T06:40:58.137Z,10.63
2019-05-01T06:43:35.431Z,10.58
2019-05-01T06:46:12.092Z,10.69
2019-05-01T06:48:48.938Z,10.56
2019-05-01T06:51:47.841Z,10.79
2019-05-01T06:54:17.528Z,10.67
2019-05-01T06:56:46.964Z,10.54
2019-05-01T06:59:16.832Z,10.86
2019-05-01T07:01:47.090Z,10.85
2019-05-01T07:04:16.025Z,10.89
2019-05-01T07:06:48.076Z,10.66
2019-05-01T07:09:27.420Z,10.84
2019-05-01T07:11:52.676Z,10.87
2019-05-01T07:14:18.352Z,10.88
2019-05-01T07:16:47.005Z,10.93
2019-05-01T07:19:16.989Z,10.97
2019-05-01T07:21:45.477Z,11.19
2019-05-01T07:24:14.178Z,11.02
2019-05-01T07:26:43.954Z,10.96
2019-05-01T07:29:32.782Z,10.90
2019-05-01T07:32:01.725Z,10.99
2019-05-01T07:34:30.982Z,10.98
2019-05-01T07:37:01.813Z,10.98
2019-05-01T07:39:32.732Z,11.05
2019-05-01T07:42:21.804Z,11.07
2019-05-01T07:45:03.846Z,11.17
2019-05-01T07:47:40.540Z,10.94
2019-05-01T07:50:16.039Z,11.06
2019-05-01T07:52:52.346Z,11.43
2019-05-01T07:55:41.111Z,11.36
2019-05-01T07:58:16.128Z,11.60
2019-05-01T08:00:52.453Z,11.66
2019-05-01T08:03:23.351Z,11.63
2019-05-01T08:05:51.829Z,11.31
2019-05-01T08:08:20.415Z,11.31
2019-05-01T08:10:48.980Z,11.25
2019-05-01T08:13:17.401Z,11.17
2019-05-01T08:15:45.841Z,11.11
2019-05-01T08:18:15.908Z,11.06
2019-05-01T08:21:02.440Z,10.97
2019-05-01T08:23:30.817Z,10.89
2019-05-01T08:26:03.979Z,10.95
2019-05-01T08:28:49.698Z,11.07
2019-05-01T08:31:27.744Z,11.29
2019-05-01T08:34:01.096Z,11.39
2019-05-01T08:36:29.522Z,11.18
2019-05-01T08:39:04.827Z,11.43
2019-05-01T08:41:32.020Z,11.31
2019-05-01T08:44:05.348Z,11.15
2019-05-01T08:46:52.184Z,11.05
2019-05-01T08:49:22.339Z,11.28
2019-05-01T08:51:51.738Z,11.24
2019-05-01T08:54:20.153Z,11.12
2019-05-01T08:56:53.094Z,11.06
2019-05-01T08:59:25.768Z,11.09
2019-05-01T09:02:08.398Z,10.95
2019-05-01T09:04:25.155Z,10.84
2019-05-01T09:06:54.469Z,10.88
2019-05-01T09:09:22.875Z,10.93
2019-05-01T09:11:54.716Z,11.14
2019-05-01T09:14:25.359Z,11.06
2019-05-01T09:16:53.865Z,11.07
2019-05-01T09:19:23.727Z,11.26
2019-05-01T09:21:52.144Z,11.19
2019-05-01T09:24:23.146Z,11.17
2019-05-01T09:26:58.349Z,11.45
2019-05-01T09:29:28.665Z,11.20
2019-05-01T09:31:57.498Z,11.26
2019-05-01T09:34:25.961Z,11.44
2019-05-01T09:36:54.558Z,11.67
2019-05-01T09:39:23.944Z,11.67
2019-05-01T09:41:52.446Z,11.56
2019-05-01T09:44:20.973Z,11.53
2019-05-01T09:46:50.519Z,11.81
2019-05-01T09:49:19.812Z,11.62
2019-05-01T09:51:58.843Z,11.51
2019-05-01T09:54:31.745Z,11.28
2019-05-01T09:57:00.443Z,11.19
2019-05-01T09:59:28.891Z,11.33
2019-05-01T10:01:57.291Z,11.31
2019-05-01T10:04:32.363Z,11.26
2019-05-01T10:07:06.220Z,11.51
2019-05-01T10:09:34.698Z,11.51
2019-05-01T10:12:03.213Z,11.70
2019-05-01T10:14:36.122Z,11.86
2019-05-01T10:17:01.837Z,11.53
2019-05-01T10:19:30.300Z,11.55
2019-05-01T10:22:02.468Z,11.49
2019-05-01T10:24:32.130Z,11.68
2019-05-01T10:27:01.542Z,11.55
2019-05-01T10:29:47.746Z,11.43
2019-05-01T10:32:21.572Z,11.47
2019-05-01T10:34:58.093Z,11.48
2019-05-01T10:37:28.317Z,11.38
2019-05-01T10:39:58.007Z,11.75
2019-05-01T10:42:26.452Z,11.81
2019-05-01T10:44:55.983Z,11.57
2019-05-01T10:47:28.064Z,11.66
2019-05-01T10:49:56.812Z,11.95
2019-05-01T10:52:25.228Z,11.96
2019-05-01T10:54:56.434Z,12.07
2019-05-01T10:57:24.870Z,12.33
2019-05-01T10:59:57.178Z,12.41
2019-05-01T11:02:27.766Z,12.58
2019-05-01T11:04:56.188Z,12.66
2019-05-01T11:07:25.836Z,12.86
2019-05-01T11:09:54.239Z,13.04
2019-05-01T11:12:23.016Z,13.52
2019-05-01T11:14:51.418Z,13.19
2019-05-01T11:17:19.912Z,13.02
2019-05-01T11:19:48.312Z,12.82
2019-05-01T11:22:16.734Z,12.66
2019-05-01T11:24:45.175Z,12.66
2019-05-01T11:27:14.640Z,12.79
2019-05-01T11:29:43.042Z,12.86
2019-05-01T11:32:13.410Z,12.80
2019-05-01T11:34:55.180Z,12.89
2019-05-01T11:37:44.424Z,13.13
2019-05-01T11:40:18.003Z,13.45
2019-05-01T11:42:49.034Z,13.50
2019-05-01T11:45:17.855Z,13.08
2019-05-01T11:47:48.528Z,13.07
2019-05-01T11:50:17.030Z,12.91
2019-05-01T11:52:47.101Z,12.69
2019-05-01T11:55:15.456Z,12.79
2019-05-01T11:57:43.866Z,12.97
2019-05-01T12:00:14.702Z,12.98
2019-05-01T12:02:43.136Z,12.99
2019-05-01T12:05:13.072Z,12.49
2019-05-01T12:07:43.549Z,12.72
2019-05-01T12:10:16.394Z,12.77
2019-05-01T12:12:44.917Z,12.90
2019-05-01T12:15:16.035Z,12.71
2019-05-01T12:17:46.082Z,12.76
2019-05-01T12:20:22.546Z,12.71
2019-05-01T12:22:51.619Z,12.64
2019-05-01T12:25:26.558Z,12.57
2019-05-01T12:28:03.720Z,12.74
2019-05-01T12:30:32.206Z,12.70
2019-05-01T12:33:00.577Z,12.46
2019-05-01T12:35:31.518Z,12.60
2019-05-01T12:38:04.423Z,12.58
2019-05-01T12:40:36.780Z,12.13
2019-05-01T12:43:04.462Z,12.33
2019-05-01T12:45:33.064Z,12.10
2019-05-01T12:48:02.356Z,12.24
2019-05-01T12:50:30.971Z,12.37
2019-05-01T12:53:03.905Z,12.28
2019-05-01T12:55:34.380Z,12.54
2019-05-01T12:58:05.366Z,12.24
2019-05-01T13:00:46.836Z,12.46
2019-05-01T13:03:15.732Z,12.48
2019-05-01T13:05:44.156Z,12.55
2019-05-01T13:08:12.575Z,12.29
2019-05-01T13:10:41.584Z,12.16
2019-05-01T13:13:11.298Z,12.13
2019-05-01T13:15:40.276Z,12.07
2019-05-01T13:18:08.668Z,12.27
2019-05-01T13:20:38.084Z,12.53
2019-05-01T13:23:06.521Z,12.68
2019-05-01T13:25:34.949Z,12.57
2019-05-01T13:28:13.828Z,12.74
2019-05-01T13:30:55.407Z,12.50
2019-05-01T13:33:23.828Z,12.54
2019-05-01T13:35:52.276Z,12.79
2019-05-01T13:38:20.704Z,12.90
2019-05-01T13:40:49.164Z,12.74
2019-05-01T13:43:45.249Z,12.81
2019-05-01T13:46:17.462Z,13.04
2019-05-01T13:48:45.877Z,13.49
2019-05-01T13:51:14.292Z,13.33
2019-05-01T13:53:43.095Z,13.22
2019-05-01T13:56:11.694Z,13.30
2019-05-01T13:58:40.562Z,12.88
2019-05-01T14:01:14.213Z,12.86
2019-05-01T14:03:42.689Z,13.12
2019-05-01T14:06:12.087Z,13.25
2019-05-01T14:08:40.503Z,13.11
2019-05-01T14:11:10.231Z,13.30
2019-05-01T14:13:38.648Z,13.16
2019-05-01T14:16:07.236Z,13.27
2019-05-01T14:18:35.690Z,13.23
2019-05-01T14:21:05.779Z,13.11
2019-05-01T14:23:54.403Z,13.17
2019-05-01T14:26:23.871Z,12.95
2019-05-01T14:28:52.323Z,12.98
2019-05-01T14:31:20.722Z,13.13
2019-05-01T14:33:49.148Z,13.08
2019-05-01T14:36:17.583Z,13.19
2019-05-01T14:38:45.999Z,12.96
2019-05-01T14:41:14.410Z,12.93
2019-05-01T14:43:42.996Z,12.66
2019-05-01T14:46:11.973Z,12.53
2019-05-01T14:48:41.466Z,12.84
2019-05-01T14:51:13.636Z,12.58
2019-05-01T14:53:42.064Z,12.63
2019-05-01T14:56:12.415Z,12.47
2019-05-01T14:58:44.679Z,12.75
2019-05-01T15:01:14.003Z,12.76
2019-05-01T15:03:42.425Z,12.64
2019-05-01T15:06:13.658Z,12.98
2019-05-01T15:08:42.072Z,12.64
2019-05-01T15:11:11.531Z,12.55
2019-05-01T15:13:53.869Z,12.32
2019-05-01T15:16:25.012Z,12.44
2019-05-01T15:18:57.984Z,12.43
2019-05-01T15:21:26.414Z,12.20
2019-05-01T15:23:55.839Z,12.21
2019-05-01T15:26:24.299Z,12.22
2019-05-01T15:28:54.436Z,12.27
2019-05-01T15:31:22.818Z,12.06
2019-05-01T15:33:51.237Z,11.87
2019-05-01T15:36:19.640Z,11.78
2019-05-01T15:38:48.108Z,11.87
2019-05-01T15:41:24.138Z,11.85
2019-05-01T15:44:06.288Z,11.99
2019-05-01T15:46:35.618Z,11.88
2019-05-01T15:49:04.153Z,11.59
2019-05-01T15:51:32.579Z,11.70
2019-05-01T15:54:02.191Z,11.60
2019-05-01T15:56:30.601Z,11.71
2019-05-01T15:58:59.029Z,11.65
2019-05-01T16:01:27.457Z,11.50
2019-05-01T16:03:55.897Z,11.54
2019-05-01T16:06:24.293Z,11.54
2019-05-01T16:08:52.763Z,11.40
2019-05-01T16:11:22.797Z,11.19
2019-05-01T16:13:52.429Z,11.23
2019-05-01T16:16:20.843Z,11.22
2019-05-01T16:18:55.351Z,11.08
2019-05-01T16:21:23.900Z,11.18
2019-05-01T16:23:53.398Z,11.00
2019-05-01T16:26:21.818Z,11.11
2019-05-01T16:28:50.254Z,11.15
2019-05-01T16:31:19.134Z,10.99
2019-05-01T16:33:47.531Z,10.71
2019-05-01T16:36:16.633Z,10.77
2019-05-01T16:39:02.954Z,10.89
2019-05-01T16:41:32.166Z,10.85
2019-05-01T16:44:01.236Z,10.67
2019-05-01T16:46:29.613Z,10.83
2019-05-01T16:48:58.039Z,10.88
2019-05-01T16:51:27.630Z,10.74
2019-05-01T16:53:56.105Z,10.65
2019-05-01T16:56:24.614Z,10.75
2019-05-01T16:58:53.024Z,10.58
2019-05-01T17:01:40.373Z,10.53
2019-05-01T17:04:23.368Z,10.63
2019-05-01T17:07:10.324Z,10.39
2019-05-01T17:09:56.740Z,10.24
2019-05-01T17:12:26.839Z,10.39
2019-05-01T17:14:56.385Z,10.49
2019-05-01T17:17:25.539Z,10.50
2019-05-01T17:19:53.914Z,10.45
2019-05-01T17:22:22.392Z,10.32
2019-05-01T17:24:51.740Z,10.10
2019-05-01T17:27:20.228Z,10.31
2019-05-01T17:29:48.639Z,10.09
2019-05-01T17:32:20.024Z,10.10
2019-05-01T17:34:48.433Z,10.10
2019-05-01T17:37:17.351Z,10.19
2019-05-01T17:39:47.405Z,10.16
2019-05-01T17:42:15.833Z,10.12
2019-05-01T17:44:44.283Z,9.98
2019-05-01T17:47:12.720Z,10.07
2019-05-01T17:49:44.927Z,10.06
2019-05-01T17:52:11.336Z,9.94
2019-05-01T17:54:43.047Z,10.11
2019-05-01T17:57:11.550Z,10.02
2019-05-01T17:59:40.221Z,9.87
2019-05-01T18:02:28.252Z,9.87
2019-05-01T18:05:12.303Z,10.03
2019-05-01T18:07:41.079Z,10.08
2019-05-01T18:10:09.629Z,10.06
2019-05-01T18:12:41.511Z,9.98
2019-05-01T18:15:13.197Z,9.91
2019-05-01T18:17:40.870Z,9.85
2019-05-01T18:20:09.793Z,9.73
2019-05-01T18:22:49.074Z,9.82
2019-05-01T18:25:28.147Z,9.66
2019-05-01T18:28:00.189Z,9.66
2019-05-01T18:30:36.050Z,9.63
2019-05-01T18:33:04.761Z,9.80
2019-05-01T18:35:33.405Z,9.65
2019-05-01T18:38:19.998Z,9.79
2019-05-01T18:40:56.628Z,9.72
2019-05-01T18:43:26.940Z,9.65
2019-05-01T18:45:57.705Z,9.78
2019-05-01T18:48:31.033Z,9.78
2019-05-01T18:51:00.075Z,9.80
2019-05-01T18:53:28.570Z,9.70
2019-05-01T18:56:01.337Z,9.55
2019-05-01T18:58:33.463Z,9.62
2019-05-01T19:01:55.946Z,9.68
2019-05-01T19:04:39.227Z,9.57
2019-05-01T19:07:08.025Z,9.62
2019-05-01T19:09:46.482Z,9.64
2019-05-01T19:12:23.142Z,9.63
2019-05-01T19:14:52.003Z,9.54
2019-05-01T19:20:18.582Z,9.60
2019-05-01T19:22:47.508Z,9.58
2019-05-01T19:25:18.066Z,9.59
2019-05-01T19:27:54.025Z,9.45
2019-05-01T19:30:24.109Z,9.54
2019-05-01T19:32:52.591Z,9.48
2019-05-01T19:35:29.609Z,9.52
2019-05-01T19:43:56.640Z,9.64
2019-05-01T19:46:27.972Z,9.64
2019-05-01T19:49:00.971Z,9.48
2019-05-01T19:51:29.678Z,9.58
2019-05-01T19:53:58.284Z,9.57
2019-05-01T19:56:30.234Z,9.55
2019-05-01T20:02:04.213Z,9.71
2019-05-01T20:04:36.856Z,9.67
2019-05-01T20:07:05.514Z,9.52
2019-05-01T20:09:40.524Z,9.74
2019-05-01T20:12:09.141Z,9.73
2019-05-01T20:18:01.930Z,9.54
2019-05-01T20:20:30.573Z,9.59
2019-05-01T20:22:59.097Z,9.55
2019-05-01T20:25:28.602Z,9.38
2019-05-01T20:27:57.467Z,9.39
2019-05-01T20:30:28.333Z,9.46
2019-05-01T20:32:58.266Z,9.33
2019-05-01T20:35:34.263Z,9.30
2019-05-01T20:38:22.343Z,9.23
2019-05-01T20:40:50.943Z,9.33
2019-05-01T20:43:43.619Z,9.51
2019-05-01T20:49:36.467Z,9.27
2019-05-01T20:52:32.029Z,9.25
2019-05-01T20:55:07.739Z,9.21
2019-05-01T20:57:49.265Z,8.99
2019-05-01T21:00:19.920Z,9.00
2019-05-01T21:06:02.967Z,8.89
2019-05-01T21:08:41.601Z,8.90
2019-05-01T21:11:49.155Z,8.99
2019-05-01T21:14:15.563Z,8.94
2019-05-01T21:17:13.560Z,8.84
2019-05-01T21:19:43.984Z,8.86
2019-05-01T21:22:15.151Z,8.98
2019-05-01T21:27:25.195Z,8.98
2019-05-01T21:29:53.727Z,8.86
2019-05-01T21:32:26.076Z,8.93
2019-05-01T21:34:56.428Z,8.79
2019-05-01T21:40:38.778Z,8.90
2019-05-01T21:43:03.017Z,8.96
2019-05-01T21:45:30.437Z,7.97
2019-05-01T21:47:58.854Z,8.99
2019-05-01T21:50:27.287Z,8.80
2019-05-01T21:52:58.136Z,9.02
2019-05-01T21:55:30.367Z,8.93
2019-05-01T21:58:08.885Z,8.89
2019-05-01T22:01:03.705Z,8.80
2019-05-01T22:03:52.545Z,8.77
2019-05-01T22:06:32.721Z,8.82
2019-05-01T22:09:21.833Z,8.95
2019-05-01T22:11:49.568Z,8.86
2019-05-01T22:14:38.740Z,8.96
2019-05-01T22:17:09.700Z,9.00
2019-05-01T22:19:38.133Z,8.83
2019-05-01T22:22:24.463Z,8.86
2019-05-01T22:25:08.050Z,8.86
2019-05-01T22:27:39.348Z,8.79
2019-05-01T22:30:30.412Z,8.83
2019-05-01T22:33:00.000Z,8.79
2019-05-01T22:35:37.083Z,8.84
2019-05-01T22:38:09.266Z,8.77
2019-05-01T22:41:06.140Z,8.75
2019-05-01T22:43:28.773Z,8.68
2019-05-01T22:46:05.086Z,8.81
2019-05-01T22:51:35.346Z,8.71
2019-05-01T22:54:06.195Z,8.77
2019-05-01T22:56:55.992Z,8.61
2019-05-01T22:59:28.469Z,8.55
2019-05-01T23:02:06.278Z,8.63
2019-05-01T23:04:34.684Z,8.57
2019-05-01T23:07:03.113Z,8.59
2019-05-01T23:09:32.215Z,8.54
2019-05-01T23:12:05.772Z,8.57
2019-05-01T23:14:37.048Z,8.66
2019-05-01T23:17:16.023Z,8.69
2019-05-01T23:19:44.477Z,8.58
2019-05-01T23:22:12.881Z,8.74
2019-05-01T23:24:41.296Z,8.67
2019-05-01T23:27:15.545Z,8.66
2019-05-01T23:29:43.992Z,8.68
2019-05-01T23:32:13.265Z,8.63
2019-05-01T23:34:44.138Z,8.67
2019-05-01T23:37:13.616Z,8.77
2019-05-01T23:39:42.250Z,8.79
2019-05-01T23:42:11.393Z,8.84
2019-05-01T23:44:43.025Z,8.80
2019-05-01T23:47:19.697Z,8.73
2019-05-01T23:49:52.547Z,8.83
2019-05-01T23:52:21.929Z,8.85
2019-05-01T23:54:50.333Z,8.85
2019-05-01T23:57:21.483Z,8.84
2019-05-01T23:59:49.926Z,8.90
